Time;durP1;ratioP1;P1;durP2;ratioP2;P2;SDS_P1;SDS_P2;PMS_P1;PMS_P2;Temp;Humidity;BMP_temperature;BMP_pressure;BME280_temperature;BME280_humidity;BME280_pressure;Samples;Min_cycle;Max_cycle;Signal;HPM_P1;HPM_P2
2023/08/27 00:01:30;;;;;;;0.38;0.25;;;13.20;99.90;;;;;;5067710;28;20036;-66
2023/08/27 00:03:56;;;;;;;0.17;0.10;;;13.10;99.90;;;;;;5058762;28;20115;-66
2023/08/27 00:06:22;;;;;;;0.30;0.20;;;13.10;99.90;;;;;;5069346;28;20068;-66
2023/08/27 00:08:48;;;;;;;0.15;0.10;;;13.10;99.90;;;;;;5063230;28;20043;-67
2023/08/27 00:11:13;;;;;;;0.50;0.28;;;13.10;99.90;;;;;;5051046;28;20040;-66
2023/08/27 00:13:39;;;;;;;0.00;0.00;;;13.10;99.90;;;;;;5066109;28;20048;-66
2023/08/27 00:16:05;;;;;;;0.30;0.10;;;13.10;99.90;;;;;;5066229;28;20512;-66
2023/08/27 00:18:32;;;;;;;0.25;0.10;;;13.10;99.90;;;;;;5066087;28;20045;-66
2023/08/27 00:20:58;;;;;;;0.45;0.28;;;13.10;99.90;;;;;;5065074;28;20047;-66
2023/08/27 00:23:24;;;;;;;0.13;0.10;;;13.00;99.90;;;;;;5065657;28;20093;-67
2023/08/27 00:25:50;;;;;;;0.20;0.10;;;13.00;99.90;;;;;;5067185;28;20442;-66
2023/08/27 00:28:16;;;;;;;0.10;0.10;;;13.00;99.90;;;;;;5065686;28;20101;-66
2023/08/27 00:30:42;;;;;;;0.25;0.17;;;13.00;99.90;;;;;;5062965;28;20056;-67
2023/08/27 00:33:08;;;;;;;0.15;0.10;;;13.00;99.90;;;;;;5064111;28;20048;-66
2023/08/27 00:35:35;;;;;;;0.32;0.20;;;13.00;99.90;;;;;;5065153;28;20506;-66
2023/08/27 00:38:01;;;;;;;0.10;0.10;;;13.00;99.90;;;;;;5067783;28;20044;-66
2023/08/27 00:40:30;;;;;;;0.45;0.20;;;12.90;99.90;;;;;;5064182;28;20032;-66
2023/08/27 00:42:56;;;;;;;0.28;0.20;;;12.90;99.90;;;;;;5066661;28;20035;-66
2023/08/27 00:45:22;;;;;;;0.40;0.20;;;12.90;99.90;;;;;;5067266;28;20041;-67
2023/08/27 00:47:48;;;;;;;0.30;0.10;;;12.90;99.90;;;;;;5067787;28;20035;-66
2023/08/27 00:50:14;;;;;;;0.77;0.20;;;12.80;99.90;;;;;;5065165;28;20102;-66
2023/08/27 00:52:42;;;;;;;0.30;0.25;;;12.80;99.90;;;;;;5067076;28;20033;-67
2023/08/27 00:55:08;;;;;;;0.63;0.28;;;12.80;99.90;;;;;;5068321;28;20052;-66
2023/08/27 00:57:36;;;;;;;0.40;0.20;;;12.70;99.90;;;;;;5067794;28;20041;-66
2023/08/27 01:00:03;;;;;;;0.35;0.22;;;12.70;99.90;;;;;;5062445;28;20025;-66
2023/08/27 01:02:28;;;;;;;0.73;0.40;;;12.80;99.90;;;;;;5063039;28;20036;-67
2023/08/27 01:04:54;;;;;;;0.40;0.10;;;12.80;99.90;;;;;;5061402;28;20093;-66
2023/08/27 01:07:30;;;;;;;0.17;0.13;;;12.80;99.90;;;;;;5065292;28;20045;-66
2023/08/27 01:10:10;;;;;;;0.20;0.20;;;12.80;99.90;;;;;;5064238;28;20365;-67
2023/08/27 01:12:50;;;;;;;0.10;0.10;;;12.90;99.90;;;;;;5062962;28;20143;-67
2023/08/27 01:15:17;;;;;;;0.32;0.10;;;12.90;99.90;;;;;;5064620;28;20048;-66
2023/08/27 01:17:43;;;;;;;0.20;0.10;;;12.90;99.90;;;;;;5066791;28;20154;-66
2023/08/27 01:20:10;;;;;;;0.40;0.20;;;13.00;99.90;;;;;;5066866;28;20113;-66
2023/08/27 01:22:35;;;;;;;0.40;0.10;;;13.00;99.90;;;;;;5068323;28;20408;-66
2023/08/27 01:25:01;;;;;;;0.10;0.10;;;13.00;99.90;;;;;;5064297;28;20151;-66
2023/08/27 01:27:36;;;;;;;1.17;0.32;;;13.00;99.90;;;;;;5066836;28;20044;-66
2023/08/27 01:30:17;;;;;;;0.45;0.20;;;13.00;99.90;;;;;;5063153;28;20043;-66
2023/08/27 01:32:51;;;;;;;0.95;0.32;;;13.00;99.90;;;;;;5066188;28;20041;-66
2023/08/27 01:35:17;;;;;;;0.43;0.20;;;13.10;99.90;;;;;;5045416;28;20463;-66
2023/08/27 01:37:44;;;;;;;0.45;0.25;;;13.00;99.90;;;;;;5066624;28;20140;-66
2023/08/27 01:40:10;;;;;;;0.38;0.20;;;13.00;99.90;;;;;;5067325;28;20389;-65
2023/08/27 01:42:36;;;;;;;0.93;0.40;;;13.00;99.90;;;;;;5065448;28;20109;-66
2023/08/27 01:45:07;;;;;;;0.13;0.10;;;13.00;99.90;;;;;;5066373;28;20111;-66
2023/08/27 01:47:33;;;;;;;0.40;0.20;;;13.00;99.90;;;;;;5070276;28;20457;-66
2023/08/27 01:49:58;;;;;;;0.93;0.30;;;13.00;99.90;;;;;;5067845;28;20029;-66
2023/08/27 01:52:24;;;;;;;0.30;0.25;;;13.00;99.90;;;;;;5071124;28;20068;-66
2023/08/27 01:54:50;;;;;;;0.40;0.30;;;12.90;99.90;;;;;;5070105;28;20044;-65
2023/08/27 01:57:15;;;;;;;0.50;0.10;;;12.90;99.90;;;;;;5067363;28;20366;-66
2023/08/27 01:59:41;;;;;;;0.13;0.10;;;12.80;99.90;;;;;;5070858;28;20041;-66
2023/08/27 02:02:07;;;;;;;0.28;0.22;;;12.80;99.90;;;;;;5070801;28;20075;-66
2023/08/27 02:04:33;;;;;;;0.40;0.30;;;12.80;99.90;;;;;;5067849;28;20135;-66
2023/08/27 02:06:59;;;;;;;0.75;0.40;;;12.70;99.90;;;;;;5070135;28;20139;-65
2023/08/27 02:09:24;;;;;;;0.28;0.20;;;12.70;99.90;;;;;;5068552;28;20132;-65
2023/08/27 02:11:50;;;;;;;0.28;0.15;;;12.70;99.90;;;;;;5067009;28;20492;-65
2023/08/27 02:14:16;;;;;;;0.45;0.20;;;12.80;99.90;;;;;;5069878;28;20469;-65
2023/08/27 02:16:42;;;;;;;0.50;0.20;;;12.70;99.90;;;;;;5053110;28;20118;-65
2023/08/27 02:19:07;;;;;;;0.15;0.10;;;12.70;99.90;;;;;;5069108;28;20357;-65
2023/08/27 02:21:33;;;;;;;0.35;0.20;;;12.70;99.90;;;;;;5069779;28;20049;-65
2023/08/27 02:24:00;;;;;;;0.32;0.20;;;12.70;99.90;;;;;;5069236;28;20460;-65
2023/08/27 02:26:26;;;;;;;0.30;0.13;;;12.60;99.90;;;;;;5070721;28;20048;-66
2023/08/27 02:28:52;;;;;;;0.43;0.20;;;12.60;99.90;;;;;;5069181;28;20045;-66
2023/08/27 02:31:18;;;;;;;1.85;0.38;;;12.60;99.90;;;;;;5067050;28;20028;-66
2023/08/27 02:33:44;;;;;;;0.95;0.38;;;12.60;99.90;;;;;;5068102;28;20040;-66
2023/08/27 02:36:10;;;;;;;1.23;0.43;;;12.60;99.90;;;;;;5061866;28;20045;-65
2023/08/27 02:38:35;;;;;;;0.80;0.20;;;12.60;99.90;;;;;;5063721;28;20407;-66
2023/08/27 02:41:01;;;;;;;0.00;0.00;;;12.60;99.90;;;;;;5069290;28;20044;-66
2023/08/27 02:43:27;;;;;;;0.90;0.30;;;12.60;99.90;;;;;;5069935;28;20461;-66
2023/08/27 02:45:53;;;;;;;1.05;0.50;;;12.60;99.90;;;;;;5068960;28;20033;-66
2023/08/27 02:48:18;;;;;;;0.30;0.20;;;12.50;99.90;;;;;;5068509;28;20044;-66
2023/08/27 02:50:44;;;;;;;0.35;0.25;;;12.60;99.90;;;;;;5067678;28;20381;-66
2023/08/27 02:53:10;;;;;;;0.20;0.10;;;12.50;99.90;;;;;;5065363;28;20036;-66
2023/08/27 02:55:36;;;;;;;0.65;0.22;;;12.50;99.90;;;;;;5064073;28;20037;-66
2023/08/27 02:58:02;;;;;;;0.60;0.30;;;12.50;99.90;;;;;;5064275;28;20043;-66
2023/08/27 03:00:28;;;;;;;0.47;0.38;;;12.50;99.90;;;;;;5066880;28;20119;-66
2023/08/27 03:02:54;;;;;;;0.30;0.10;;;12.50;99.90;;;;;;5070776;28;20119;-66
2023/08/27 03:05:19;;;;;;;1.05;0.50;;;12.60;99.90;;;;;;5066699;28;20136;-66
2023/08/27 03:07:45;;;;;;;0.68;0.22;;;12.60;99.90;;;;;;5070212;28;20044;-65
2023/08/27 03:10:12;;;;;;;0.52;0.20;;;12.60;99.90;;;;;;5068113;28;20097;-66
2023/08/27 03:12:38;;;;;;;0.10;0.10;;;12.60;99.90;;;;;;5069935;28;20059;-65
2023/08/27 03:15:04;;;;;;;0.47;0.20;;;12.60;99.90;;;;;;5069535;28;20049;-66
2023/08/27 03:17:30;;;;;;;0.35;0.13;;;12.70;99.90;;;;;;5067479;28;20070;-65
2023/08/27 03:19:56;;;;;;;0.43;0.28;;;12.70;99.90;;;;;;5066800;28;20046;-65
2023/08/27 03:22:21;;;;;;;0.30;0.20;;;12.70;99.90;;;;;;5070257;28;20048;-65
2023/08/27 03:24:47;;;;;;;0.80;0.40;;;12.70;99.90;;;;;;5058788;28;20051;-65
2023/08/27 03:27:13;;;;;;;0.35;0.17;;;12.80;99.90;;;;;;5069487;28;20104;-65
2023/08/27 03:29:39;;;;;;;0.50;0.10;;;12.80;99.90;;;;;;5064677;28;20131;-65
2023/08/27 03:32:05;;;;;;;0.40;0.30;;;12.80;99.90;;;;;;5068506;28;20047;-65
2023/08/27 03:34:31;;;;;;;0.45;0.20;;;12.90;99.90;;;;;;5066392;28;20033;-65
2023/08/27 03:36:58;;;;;;;0.20;0.10;;;12.90;99.90;;;;;;5069243;28;20045;-65
2023/08/27 03:39:24;;;;;;;0.63;0.32;;;13.00;99.90;;;;;;5067468;28;20045;-65
2023/08/27 03:41:49;;;;;;;0.43;0.28;;;13.00;99.90;;;;;;5066673;28;20362;-66
2023/08/27 03:44:15;;;;;;;0.10;0.08;;;13.00;99.90;;;;;;5069382;28;20040;-66
2023/08/27 03:46:42;;;;;;;0.50;0.30;;;13.00;99.90;;;;;;5068758;28;20435;-65
2023/08/27 03:49:07;;;;;;;0.22;0.13;;;13.10;99.90;;;;;;5068358;28;20043;-66
2023/08/27 03:51:33;;;;;;;0.75;0.10;;;13.10;99.90;;;;;;5063134;28;20480;-66
2023/08/27 03:53:59;;;;;;;0.50;0.32;;;13.10;99.90;;;;;;5065911;28;20048;-66
2023/08/27 03:56:25;;;;;;;0.10;0.10;;;13.10;99.90;;;;;;5065746;28;20045;-65
2023/08/27 03:58:51;;;;;;;0.63;0.30;;;13.20;99.90;;;;;;5066737;28;20041;-65
2023/08/27 04:01:17;;;;;;;0.22;0.10;;;13.10;99.90;;;;;;5067026;28;20115;-65
2023/08/27 04:03:43;;;;;;;0.50;0.20;;;13.20;99.90;;;;;;5066740;28;20156;-65
2023/08/27 04:06:10;;;;;;;0.25;0.20;;;13.10;99.90;;;;;;5067373;28;20039;-65
2023/08/27 04:08:36;;;;;;;0.77;0.20;;;13.20;99.90;;;;;;5067352;28;20040;-65
2023/08/27 04:11:02;;;;;;;0.57;0.28;;;13.20;99.90;;;;;;5068348;28;20152;-65
2023/08/27 04:13:28;;;;;;;0.30;0.10;;;13.10;99.90;;;;;;5067966;28;20077;-65
2023/08/27 04:16:07;;;;;;;0.10;0.00;;;13.10;99.90;;;;;;5066106;28;20049;-65
2023/08/27 04:18:33;;;;;;;0.32;0.15;;;13.00;99.90;;;;;;5067694;28;20044;-65
2023/08/27 04:20:59;;;;;;;0.73;0.20;;;13.00;99.90;;;;;;5068074;28;20067;-65
2023/08/27 04:23:25;;;;;;;0.77;0.30;;;12.90;99.90;;;;;;5067271;28;20036;-65
2023/08/27 04:25:52;;;;;;;0.73;0.20;;;12.90;99.90;;;;;;5063940;28;20506;-65
2023/08/27 04:28:17;;;;;;;0.65;0.32;;;12.80;99.90;;;;;;5045425;28;20032;-65
2023/08/27 04:30:46;;;;;;;0.55;0.20;;;12.80;99.90;;;;;;5068802;28;20488;-64
2023/08/27 04:33:11;;;;;;;0.20;0.10;;;12.80;99.90;;;;;;5068540;28;20090;-65
2023/08/27 04:35:38;;;;;;;0.50;0.20;;;12.80;99.90;;;;;;5066102;28;20040;-64
2023/08/27 04:38:05;;;;;;;0.40;0.10;;;12.80;99.90;;;;;;5067056;28;20130;-65
2023/08/27 04:40:31;;;;;;;0.57;0.25;;;12.80;99.90;;;;;;5064388;28;20087;-65
2023/08/27 04:43:00;;;;;;;0.47;0.13;;;12.70;99.90;;;;;;5065132;28;20062;-65
2023/08/27 04:45:25;;;;;;;0.30;0.20;;;12.70;99.90;;;;;;5063621;28;20469;-64
2023/08/27 04:47:51;;;;;;;0.20;0.10;;;12.70;99.90;;;;;;5065250;28;20115;-64
2023/08/27 04:50:17;;;;;;;0.35;0.10;;;12.70;99.90;;;;;;5063847;28;20132;-65
2023/08/27 04:52:43;;;;;;;0.15;0.10;;;12.70;99.90;;;;;;5063551;28;20487;-65
2023/08/27 04:55:09;;;;;;;0.13;0.13;;;12.70;99.90;;;;;;5065132;28;20044;-65
2023/08/27 04:57:36;;;;;;;0.20;0.10;;;12.70;99.90;;;;;;5067093;28;20137;-65
2023/08/27 05:00:22;;;;;;;0.65;0.30;;;12.70;99.90;;;;;;5065421;28;20024;-65
2023/08/27 05:02:49;;;;;;;0.00;0.00;;;12.70;99.90;;;;;;5067051;28;20036;-65
2023/08/27 05:05:16;;;;;;;0.25;0.25;;;12.70;99.90;;;;;;5065936;28;20083;-64
2023/08/27 05:07:42;;;;;;;0.65;0.30;;;12.70;99.90;;;;;;5064657;28;20029;-64
2023/08/27 05:10:08;;;;;;;0.73;0.20;;;12.70;99.90;;;;;;5064202;28;20040;-64
2023/08/27 05:12:34;;;;;;;0.30;0.20;;;12.70;99.90;;;;;;5067122;28;20043;-64
2023/08/27 05:15:00;;;;;;;0.10;0.10;;;12.80;99.90;;;;;;5065302;28;20036;-65
2023/08/27 05:17:26;;;;;;;0.22;0.17;;;12.80;99.90;;;;;;5065688;28;20049;-63
2023/08/27 05:19:51;;;;;;;0.20;0.20;;;12.90;99.90;;;;;;5058673;28;20040;-63
2023/08/27 05:22:17;;;;;;;0.85;0.22;;;13.00;99.90;;;;;;5064457;28;20051;-62
2023/08/27 05:24:43;;;;;;;0.73;0.25;;;13.10;99.90;;;;;;5067183;28;20102;-62
2023/08/27 05:27:08;;;;;;;0.43;0.20;;;13.10;99.90;;;;;;5067763;28;20037;-63
2023/08/27 05:29:34;;;;;;;0.52;0.20;;;13.20;99.90;;;;;;5067885;28;20120;-63
2023/08/27 05:32:00;;;;;;;0.65;0.20;;;13.20;99.90;;;;;;5066945;28;20127;-63
2023/08/27 05:34:26;;;;;;;0.20;0.15;;;13.30;99.90;;;;;;5065550;28;20071;-63
2023/08/27 05:36:52;;;;;;;0.90;0.40;;;13.40;99.90;;;;;;5065971;28;20190;-63
2023/08/27 05:39:18;;;;;;;0.10;0.00;;;13.50;99.90;;;;;;5064724;28;20040;-63
2023/08/27 05:41:44;;;;;;;0.32;0.20;;;13.50;99.90;;;;;;5065225;28;20113;-63
2023/08/27 05:44:09;;;;;;;0.30;0.15;;;13.60;99.90;;;;;;5068385;28;20040;-63
2023/08/27 05:46:35;;;;;;;1.33;0.20;;;13.70;99.90;;;;;;5067805;28;20068;-63
2023/08/27 05:49:01;;;;;;;0.30;0.20;;;13.80;99.90;;;;;;5066326;28;20080;-63
2023/08/27 05:51:27;;;;;;;0.20;0.10;;;13.90;99.90;;;;;;5062739;28;20067;-63
2023/08/27 05:53:53;;;;;;;0.28;0.20;;;14.00;99.90;;;;;;5066293;28;20044;-63
2023/08/27 05:56:18;;;;;;;0.70;0.25;;;14.00;99.90;;;;;;5064175;28;20045;-63
2023/08/27 05:58:44;;;;;;;0.52;0.20;;;14.00;99.90;;;;;;5066079;28;20043;-62
2023/08/27 06:01:10;;;;;;;0.15;0.15;;;14.00;99.90;;;;;;5064961;28;20131;-62
2023/08/27 06:03:36;;;;;;;0.68;0.35;;;14.00;99.90;;;;;;5066889;28;20082;-62
2023/08/27 06:06:03;;;;;;;0.22;0.10;;;14.00;99.90;;;;;;5057870;28;20044;-63
2023/08/27 06:08:29;;;;;;;0.38;0.20;;;14.00;99.90;;;;;;5066937;28;20044;-62
2023/08/27 06:10:55;;;;;;;0.77;0.52;;;14.00;99.90;;;;;;5063270;28;20036;-63
2023/08/27 06:13:20;;;;;;;0.10;0.08;;;14.00;99.90;;;;;;5067792;28;20040;-63
2023/08/27 06:15:47;;;;;;;0.73;0.30;;;14.00;99.90;;;;;;5065570;28;20111;-62
2023/08/27 06:18:12;;;;;;;2.10;0.40;;;14.00;99.90;;;;;;5067651;28;20052;-63
2023/08/27 06:20:38;;;;;;;0.75;0.47;;;13.90;99.90;;;;;;5062314;28;20097;-63
2023/08/27 06:23:04;;;;;;;0.63;0.30;;;13.90;99.90;;;;;;5067148;28;20562;-62
2023/08/27 06:25:36;;;;;;;0.25;0.10;;;13.90;99.90;;;;;;5061645;28;20052;-62
2023/08/27 06:28:04;;;;;;;1.20;0.20;;;13.90;99.90;;;;;;5067220;28;20152;-63
2023/08/27 06:30:31;;;;;;;0.82;0.20;;;13.90;99.90;;;;;;5065462;28;20036;-63
2023/08/27 06:32:56;;;;;;;0.30;0.10;;;13.90;99.90;;;;;;5070140;28;20123;-63
2023/08/27 06:35:23;;;;;;;2.33;0.30;;;13.90;99.90;;;;;;5068402;28;20121;-62
2023/08/27 06:37:49;;;;;;;0.32;0.17;;;13.90;99.90;;;;;;5070240;28;20032;-63
2023/08/27 06:40:15;;;;;;;0.08;0.08;;;13.90;99.90;;;;;;5070126;28;20047;-62
2023/08/27 06:42:41;;;;;;;0.47;0.30;;;13.90;99.90;;;;;;5070599;28;20040;-63
2023/08/27 06:45:08;;;;;;;0.20;0.10;;;13.80;99.90;;;;;;5071290;28;20243;-62
2023/08/27 06:47:34;;;;;;;0.15;0.10;;;13.90;99.90;;;;;;5070189;28;20032;-63
2023/08/27 06:50:00;;;;;;;0.20;0.10;;;13.90;99.90;;;;;;5068791;28;20051;-63
2023/08/27 06:52:25;;;;;;;1.50;0.10;;;13.90;99.90;;;;;;5069195;28;20134;-63
2023/08/27 06:54:51;;;;;;;0.10;0.10;;;13.90;99.90;;;;;;5069120;28;20044;-62
2023/08/27 06:57:17;;;;;;;0.30;0.20;;;14.00;99.90;;;;;;5068912;28;20044;-63
2023/08/27 06:59:43;;;;;;;0.98;0.30;;;14.00;99.90;;;;;;5068114;28;20059;-63
2023/08/27 07:02:09;;;;;;;0.85;0.20;;;14.00;99.90;;;;;;5064080;28;20403;-63
2023/08/27 07:04:35;;;;;;;0.20;0.08;;;14.00;99.90;;;;;;5064383;28;20124;-63
2023/08/27 07:07:00;;;;;;;0.00;0.00;;;14.00;99.90;;;;;;5064907;28;20041;-62
2023/08/27 07:09:27;;;;;;;0.20;0.10;;;14.00;99.90;;;;;;5048705;28;20128;-62
2023/08/27 07:11:53;;;;;;;0.38;0.15;;;14.00;99.90;;;;;;5065201;28;20067;-62
2023/08/27 07:14:19;;;;;;;0.05;0.05;;;14.00;99.90;;;;;;5067069;28;20047;-63
2023/08/27 07:16:45;;;;;;;0.13;0.10;;;14.00;99.90;;;;;;5064559;28;20076;-62
2023/08/27 07:19:11;;;;;;;0.65;0.20;;;14.00;99.90;;;;;;5068120;28;20040;-63
2023/08/27 07:21:36;;;;;;;0.35;0.20;;;14.00;99.90;;;;;;5064836;28;20043;-63
2023/08/27 07:24:02;;;;;;;0.10;0.10;;;14.00;99.90;;;;;;5065558;28;20463;-62
2023/08/27 07:26:29;;;;;;;0.00;0.00;;;14.00;99.90;;;;;;5068293;28;20033;-63
2023/08/27 07:28:56;;;;;;;0.10;0.05;;;14.00;99.90;;;;;;5066305;28;20113;-63
2023/08/27 07:31:22;;;;;;;0.30;0.10;;;14.00;99.90;;;;;;5067312;28;20472;-62
2023/08/27 07:33:47;;;;;;;1.30;0.25;;;14.00;99.90;;;;;;5064351;28;20414;-63
2023/08/27 07:36:13;;;;;;;0.30;0.28;;;14.00;99.90;;;;;;5063406;28;20097;-63
2023/08/27 07:38:42;;;;;;;0.40;0.10;;;14.00;99.90;;;;;;5065302;28;20039;-63
2023/08/27 07:41:09;;;;;;;1.42;0.20;;;14.20;99.90;;;;;;5069011;28;20115;-63
2023/08/27 07:43:34;;;;;;;0.43;0.28;;;14.40;99.90;;;;;;5066531;28;20043;-64
2023/08/27 07:46:00;;;;;;;0.22;0.10;;;14.60;99.90;;;;;;5065674;28;20037;-63
2023/08/27 07:48:27;;;;;;;0.15;0.15;;;14.80;99.90;;;;;;5068156;28;20293;-62
2023/08/27 07:50:53;;;;;;;0.00;0.00;;;14.80;99.90;;;;;;5067727;28;20045;-61
2023/08/27 07:53:19;;;;;;;0.43;0.20;;;15.00;99.90;;;;;;5067738;28;20080;-62
2023/08/27 07:55:45;;;;;;;0.57;0.10;;;15.20;99.90;;;;;;5066221;28;20068;-63
2023/08/27 07:58:11;;;;;;;0.80;0.22;;;15.30;99.90;;;;;;5068445;28;20028;-63
2023/08/27 08:00:36;;;;;;;0.88;0.20;;;15.40;99.90;;;;;;5063719;28;20050;-63
2023/08/27 08:03:02;;;;;;;0.10;0.08;;;15.60;99.90;;;;;;5066847;28;20342;-63
2023/08/27 08:05:28;;;;;;;0.40;0.20;;;15.70;99.90;;;;;;5066000;28;20135;-63
2023/08/27 08:07:54;;;;;;;1.80;0.40;;;15.90;99.90;;;;;;5067949;28;20051;-63
2023/08/27 08:10:23;;;;;;;0.82;0.20;;;16.00;99.90;;;;;;5067234;28;20055;-62
2023/08/27 08:12:52;;;;;;;0.13;0.05;;;16.10;99.90;;;;;;5066513;28;20040;-63
2023/08/27 08:15:18;;;;;;;1.08;0.10;;;16.30;99.90;;;;;;5067777;28;20071;-63
2023/08/27 08:17:44;;;;;;;1.45;0.25;;;16.40;99.90;;;;;;5063013;28;20048;-63
2023/08/27 08:20:11;;;;;;;0.20;0.00;;;16.60;99.90;;;;;;5068822;28;20045;-63
2023/08/27 08:22:38;;;;;;;0.93;0.15;;;16.60;99.90;;;;;;5065231;28;20068;-63
2023/08/27 08:25:04;;;;;;;0.80;0.30;;;16.80;99.90;;;;;;5068334;28;20048;-63
2023/08/27 08:27:29;;;;;;;0.25;0.10;;;16.90;99.90;;;;;;5064486;28;20036;-63
2023/08/27 08:29:55;;;;;;;0.30;0.15;;;17.10;99.90;;;;;;5067795;28;20028;-64
2023/08/27 08:32:21;;;;;;;0.40;0.30;;;17.20;99.90;;;;;;5056481;28;20082;-63
2023/08/27 08:34:46;;;;;;;0.10;0.10;;;17.30;99.90;;;;;;5062225;28;20037;-64
2023/08/27 08:37:12;;;;;;;0.10;0.10;;;17.40;99.90;;;;;;5064099;28;20040;-63
2023/08/27 08:39:38;;;;;;;0.00;0.00;;;17.60;99.90;;;;;;5068881;28;20433;-63
2023/08/27 08:42:14;;;;;;;0.50;0.10;;;17.80;99.90;;;;;;5064676;28;20385;-62
2023/08/27 08:44:53;;;;;;;0.32;0.13;;;18.00;99.90;;;;;;5067811;28;20473;-63
2023/08/27 08:47:21;;;;;;;0.10;0.00;;;18.00;99.90;;;;;;5058620;28;20048;-63
2023/08/27 08:49:54;;;;;;;0.38;0.13;;;18.20;99.90;;;;;;5067714;28;20364;-64
2023/08/27 08:52:24;;;;;;;0.00;0.00;;;18.30;99.90;;;;;;5060867;28;20048;-63
2023/08/27 08:54:53;;;;;;;0.00;0.00;;;18.50;99.90;;;;;;5063910;28;20048;-63
2023/08/27 08:57:20;;;;;;;0.30;0.20;;;18.60;99.90;;;;;;5062824;28;20044;-64
2023/08/27 08:59:47;;;;;;;0.77;0.20;;;18.80;99.90;;;;;;5065672;28;20115;-64
2023/08/27 09:02:14;;;;;;;0.20;0.10;;;18.90;99.90;;;;;;5063569;28;20090;-64
2023/08/27 09:04:41;;;;;;;0.52;0.13;;;19.10;99.90;;;;;;5065980;28;20351;-64
2023/08/27 09:07:07;;;;;;;0.10;0.10;;;19.20;99.90;;;;;;5058986;28;20451;-63
2023/08/27 09:09:33;;;;;;;0.40;0.20;;;19.30;99.90;;;;;;5068870;28;20037;-64
2023/08/27 09:11:59;;;;;;;0.20;0.10;;;19.50;99.90;;;;;;5063398;28;20105;-62
2023/08/27 09:14:25;;;;;;;0.05;0.03;;;19.60;99.90;;;;;;5066683;28;20036;-63
2023/08/27 09:16:51;;;;;;;0.20;0.10;;;19.80;99.90;;;;;;5060604;28;20121;-64
2023/08/27 09:19:17;;;;;;;0.17;0.08;;;20.10;99.90;;;;;;5068383;28;20652;-64
2023/08/27 09:21:44;;;;;;;1.02;0.25;;;20.60;99.90;;;;;;5064116;28;20033;-64
2023/08/27 09:24:10;;;;;;;0.30;0.10;;;21.10;99.90;;;;;;5066311;28;20052;-64
2023/08/27 09:26:38;;;;;;;0.13;0.10;;;21.50;99.90;;;;;;5066191;28;20646;-64
2023/08/27 09:29:07;;;;;;;0.30;0.10;;;22.00;99.90;;;;;;5067252;28;20041;-64
2023/08/27 09:31:40;;;;;;;0.00;0.00;;;22.40;99.90;;;;;;5063665;28;20504;-64
2023/08/27 09:34:06;;;;;;;0.10;0.10;;;22.80;99.90;;;;;;5064928;28;20381;-64
2023/08/27 09:36:35;;;;;;;0.30;0.13;;;23.00;99.90;;;;;;5063390;28;20075;-64
2023/08/27 09:39:08;;;;;;;0.85;0.20;;;23.10;99.90;;;;;;5064865;28;20127;-64
2023/08/27 09:41:37;;;;;;;0.20;0.10;;;23.00;99.90;;;;;;5064276;28;20106;-64
2023/08/27 09:44:03;;;;;;;0.22;0.10;;;22.90;99.90;;;;;;5064440;28;20036;-64
2023/08/27 09:46:29;;;;;;;0.20;0.10;;;22.50;99.90;;;;;;5064863;28;20555;-64
2023/08/27 09:49:04;;;;;;;0.30;0.10;;;22.00;99.90;;;;;;5066824;28;20076;-64
2023/08/27 09:51:35;;;;;;;0.20;0.13;;;21.60;99.90;;;;;;5066099;28;20543;-66
2023/08/27 09:54:11;;;;;;;0.03;0.03;;;21.30;99.90;;;;;;5067109;28;20115;-66
2023/08/27 09:56:37;;;;;;;0.20;0.10;;;20.80;99.90;;;;;;5066476;28;20047;-66
2023/08/27 09:59:05;;;;;;;0.75;0.13;;;20.40;99.90;;;;;;5067678;28;20037;-72
2023/08/27 10:01:36;;;;;;;0.15;0.10;;;20.10;99.90;;;;;;5044403;28;20033;-72
2023/08/27 10:04:07;;;;;;;0.20;0.10;;;20.00;99.90;;;;;;5058160;28;20387;-72
2023/08/27 10:06:39;;;;;;;0.25;0.20;;;19.80;99.90;;;;;;5062924;28;20048;-73
2023/08/27 10:09:06;;;;;;;0.13;0.10;;;20.10;99.90;;;;;;5065663;28;20044;-72
2023/08/27 10:11:38;;;;;;;0.40;0.10;;;20.20;99.90;;;;;;5066114;28;20422;-73
2023/08/27 10:14:04;;;;;;;0.08;0.08;;;20.10;99.90;;;;;;5066607;28;20119;-73
2023/08/27 10:16:31;;;;;;;0.95;0.22;;;20.10;99.90;;;;;;5067540;28;20067;-72
2023/08/27 10:18:57;;;;;;;0.57;0.28;;;19.90;99.90;;;;;;5050052;28;20073;-73
2023/08/27 10:21:24;;;;;;;0.05;0.05;;;19.70;99.90;;;;;;5073298;28;20075;-73
2023/08/27 10:23:50;;;;;;;0.10;0.10;;;19.70;99.90;;;;;;5068462;28;20037;-73
2023/08/27 10:26:16;;;;;;;0.22;0.10;;;20.20;99.90;;;;;;5072424;28;20443;-74
2023/08/27 10:28:44;;;;;;;0.57;0.32;;;20.80;99.90;;;;;;5051934;28;20116;-73
2023/08/27 10:31:10;;;;;;;1.55;0.55;;;21.40;99.90;;;;;;5072604;28;20488;-73
2023/08/27 10:33:36;;;;;;;0.20;0.05;;;21.60;99.90;;;;;;5069934;28;20120;-73
2023/08/27 10:36:28;;;;;;;0.10;0.10;;;21.40;99.90;;;;;;5071234;28;20041;-73
2023/08/27 10:38:55;;;;;;;0.00;0.00;;;20.90;99.90;;;;;;5069314;28;20561;-69
2023/08/27 10:41:25;;;;;;;1.08;0.30;;;20.50;99.90;;;;;;5066581;28;20045;-69
2023/08/27 10:43:51;;;;;;;1.45;0.20;;;20.20;99.90;;;;;;5065238;28;20055;-70
2023/08/27 10:46:18;;;;;;;0.60;0.20;;;19.80;99.90;;;;;;5051369;28;20036;-70
2023/08/27 10:48:52;;;;;;;0.60;0.05;;;19.40;99.90;;;;;;5061473;28;20047;-70
2023/08/27 10:51:18;;;;;;;0.17;0.10;;;19.20;99.90;;;;;;5064537;28;20049;-70
2023/08/27 10:53:50;;;;;;;0.17;0.05;;;18.90;99.90;;;;;;5064112;28;20040;-69
2023/08/27 10:56:27;;;;;;;0.40;0.10;;;18.70;99.90;;;;;;5061156;28;20041;-69
2023/08/27 10:58:57;;;;;;;1.05;0.22;;;18.50;99.90;;;;;;5065790;28;20040;-69
2023/08/27 11:01:23;;;;;;;0.73;0.20;;;18.30;99.90;;;;;;5065972;28;20048;-69
2023/08/27 11:03:59;;;;;;;0.20;0.10;;;18.20;99.90;;;;;;5048731;28;20039;-68
2023/08/27 11:06:45;;;;;;;0.57;0.20;;;18.00;99.90;;;;;;5064334;28;20036;-69
2023/08/27 11:09:14;;;;;;;0.05;0.05;;;17.90;99.90;;;;;;5063021;28;20485;-69
2023/08/27 11:11:43;;;;;;;0.10;0.10;;;18.00;99.90;;;;;;5065883;28;20044;-68
2023/08/27 11:14:09;;;;;;;0.88;0.20;;;18.00;99.90;;;;;;5067144;28;20052;-68
2023/08/27 11:16:46;;;;;;;0.10;0.10;;;18.00;99.90;;;;;;5061165;28;20517;-68
2023/08/27 11:19:12;;;;;;;0.63;0.13;;;18.20;99.90;;;;;;5063882;28;20040;-68
2023/08/27 11:21:38;;;;;;;0.30;0.20;;;18.20;99.90;;;;;;5069075;28;20473;-68
2023/08/27 11:24:17;;;;;;;0.20;0.10;;;18.30;99.90;;;;;;5067317;28;20053;-69
2023/08/27 11:26:45;;;;;;;0.25;0.20;;;18.40;99.90;;;;;;5064514;28;20079;-68
2023/08/27 11:29:11;;;;;;;0.20;0.05;;;18.40;99.90;;;;;;5051382;28;20054;-68
2023/08/27 11:31:41;;;;;;;0.20;0.20;;;18.40;99.90;;;;;;5067055;28;20037;-68
2023/08/27 11:34:10;;;;;;;0.73;0.22;;;18.40;99.90;;;;;;5063510;28;20040;-67
2023/08/27 11:36:37;;;;;;;0.50;0.40;;;18.30;99.90;;;;;;5064681;28;20097;-68
2023/08/27 11:39:05;;;;;;;0.30;0.10;;;18.20;99.90;;;;;;5066065;28;20033;-67
2023/08/27 11:41:39;;;;;;;0.57;0.25;;;18.10;99.90;;;;;;5065867;28;20064;-68
2023/08/27 11:44:06;;;;;;;;;;;17.80;99.90;;;;;;5066388;28;20051;-67
2023/08/27 11:46:33;;;;;;;0.32;0.10;;;17.60;99.90;;;;;;5048826;28;20451;-67
2023/08/27 11:48:59;;;;;;;0.45;0.30;;;17.30;99.90;;;;;;5066411;28;20036;-66
2023/08/27 11:51:26;;;;;;;0.38;0.32;;;17.20;99.90;;;;;;5065905;28;20049;-67
2023/08/27 11:53:52;;;;;;;0.10;0.10;;;17.00;99.90;;;;;;5066980;28;20033;-68
2023/08/27 11:56:18;;;;;;;0.28;0.20;;;16.80;99.90;;;;;;5065799;28;20439;-67
2023/08/27 11:58:52;;;;;;;0.10;0.00;;;16.70;99.90;;;;;;5068031;28;20052;-67
2023/08/27 12:01:22;;;;;;;;;;;16.50;99.90;;;;;;5057085;28;20119;-67
2023/08/27 12:03:48;;;;;;;0.20;0.10;;;16.30;99.90;;;;;;5065416;28;20047;-68
2023/08/27 12:06:17;;;;;;;0.60;0.10;;;16.10;99.90;;;;;;5070036;28;20040;-67
2023/08/27 12:08:47;;;;;;;0.10;0.10;;;16.00;99.90;;;;;;5064288;28;20043;-68
2023/08/27 12:11:14;;;;;;;0.10;0.10;;;15.90;99.90;;;;;;5062203;28;20044;-67
2023/08/27 12:13:41;;;;;;;0.40;0.20;;;16.00;99.90;;;;;;5062400;28;20392;-67
2023/08/27 12:16:07;;;;;;;0.20;0.20;;;16.40;99.90;;;;;;5063714;28;20048;-67
2023/08/27 12:18:35;;;;;;;0.17;0.10;;;16.80;99.90;;;;;;5063157;28;20044;-67
2023/08/27 12:21:08;;;;;;;0.10;0.10;;;17.10;99.90;;;;;;5064677;28;20036;-66
2023/08/27 12:23:34;;;;;;;0.77;0.30;;;17.60;99.90;;;;;;5065666;28;20095;-67
2023/08/27 12:26:02;;;;;;;2.97;0.40;;;18.50;99.90;;;;;;5068331;28;20048;-67
2023/08/27 12:28:28;;;;;;;0.52;0.32;;;19.50;99.90;;;;;;5062312;28;20029;-68
2023/08/27 12:30:58;;;;;;;0.32;0.10;;;20.40;99.90;;;;;;5068036;28;20173;-67
2023/08/27 12:33:40;;;;;;;0.10;0.10;;;20.90;99.90;;;;;;5065626;28;20066;-67
2023/08/27 12:36:07;;;;;;;0.03;0.00;;;20.70;99.90;;;;;;5065888;28;20377;-67
2023/08/27 12:38:33;;;;;;;0.00;0.00;;;20.30;99.90;;;;;;5067647;28;20058;-67
2023/08/27 12:40:59;;;;;;;0.00;0.00;;;20.20;99.90;;;;;;5064849;28;20428;-67
2023/08/27 12:43:25;;;;;;;0.10;0.00;;;20.30;99.90;;;;;;5061392;28;20040;-67
2023/08/27 12:45:51;;;;;;;0.00;0.00;;;20.30;99.90;;;;;;5068505;28;20044;-67
2023/08/27 12:48:17;;;;;;;0.00;0.00;;;20.10;99.90;;;;;;5065242;28;20083;-66